Cochecton, NY (12726)

7:13 PM EST on January 20, 2017 (GMT -0500)
ME6126 | | Change Station
Active Advisory: Storm Watch

Elev 1302 ft 41.70 °N, 75.20 °W | Updated 12 minutes ago

Overcast
Overcast
36.0 °F
Feels Like 36 °F
N
2.0
Wind Variable Wind from NNE
Gusts 5.0 mph

Today
High -- | Low -- °F
--% Chance of Precip.
Yesterday
High -- | Low -- °F
Precip. -- in
Pressure 29.87 in
Visibility 5.0 miles
Clouds Mostly Cloudy 900 ft
Windchill 36 °F
Dew Point 35 °F
Humidity 96%
Rainfall 0.00 in
Snow Depth Not available.
7:22 AM 5:01 PM
Last Quarter, 40% visible
METAR KMSV 202355Z AUTO 10003KT 5SM BKN009 01/01 A2987 RMK AO1 10030 20010 400300000 54000
Pressure 29.87 in
Visibility 5.0 miles
Clouds Mostly Cloudy 900 ft
Windchill 36 °F
Dew Point 35 °F
Humidity 96%
Rainfall 0.00 in
Snow Depth Not available.
7:22 AM 5:01 PM
Last Quarter, 40% visible
METAR KMSV 202355Z AUTO 10003KT 5SM BKN009 01/01 A2987 RMK AO1 10030 20010 400300000 54000

Get Your Daily Forecast Email!

Thanks for signing up!

Be on the lookout for a verification email in your inbox.

You'll start receiving the daily forecast at 8 AM.

×

10-Day Weather Forecast

Almanac

Astronomy

Jan. 20, 2017 Rise Set
Actual Time
Civil Twilight
Nautical Twilight
Astronomical Twilight
Moon
Length of Visible Light
Length of Day
Tomorrow will be .
, % of the Moon is Illuminated

Today's Extremes

State Highs State Lows

Community

WunderPhotos

Upload Photos

1,962,540 photos uploaded!

WunderBlog® & News

Nearby

Air Quality

  Air Quality AQ Index Pollutant
Not available.

Snow Depth

Station Depth Elevation

Earthquake Activity

City Distance Mag. Time & Date
Minimum magnitude displayed is 2.5.

Coastal Water Temperatures

Place Temperature

Stations

Nearby Weather Stations

Station Location Temp. Windchill Dew Point Humidity Wind Precip. Elev Updated Type
                   

Watches & Warnings

Storm Watch
Issued: 3:08 PM EST Jan. 20, 2017 – National Weather Service

... Storm watch in effect from late Sunday night through late
Monday night...

The National Weather Service in Upton has issued a storm watch...
which is in effect from late Sunday night through late Monday
night.

* Winds and seas... northeast winds 40 to 45 kt with gusts up to 60
kt on ocean... 35 to 40 kt with gusts to 50 kt on the nearshore
waters. Seas 16 to 21 feet on the ocean... and 5 to 10 ft on
Long Island Sound.

Precautionary/preparedness actions...

A storm watch is issued when the risk of storm force winds of
48 to 63 kt has significantly increased... but the specific timing
and/or location is still uncertain. It is intended to provide
additional lead time for mariners who may wish to consider
altering their plans.